Time;durP1;ratioP1;P1;durP2;ratioP2;P2;SDS_P1;SDS_P2;PMS_P1;PMS_P2;Temp;Humidity;BMP_temperature;BMP_pressure;BME280_temperature;BME280_humidity;BME280_pressure;Samples;Min_cycle;Max_cycle;Signal;HPM_P1;HPM_P2
2021/12/08 00:01:58;;;;;;;7.27;3.27;;;;;;;3.99;100.00;99068.25;5259141;28;20108;-81
2021/12/08 00:04:29;;;;;;;8.10;4.30;;;;;;;4.01;100.00;99069.94;5256667;28;20532;-79
2021/12/08 00:07:02;;;;;;;5.87;3.10;;;;;;;4.01;100.00;99059.63;5258484;28;20124;-81
2021/12/08 00:15:07;;;;;;;7.80;3.20;;;;;;;4.13;100.00;99039.72;5260424;28;20037;-77
2021/12/08 00:17:39;;;;;;;10.75;4.07;;;;;;;4.18;100.00;99043.91;5259700;28;20025;-80
2021/12/08 00:20:11;;;;;;;7.57;3.08;;;;;;;4.20;100.00;99046.47;5260590;28;20131;-76
2021/12/08 00:22:42;;;;;;;5.90;3.13;;;;;;;4.24;100.00;99045.56;5260669;28;20087;-75
2021/12/08 00:25:14;;;;;;;8.07;3.20;;;;;;;4.27;100.00;99048.09;5263298;28;20029;-83
2021/12/08 00:27:45;;;;;;;8.33;3.00;;;;;;;4.32;100.00;99058.34;5261244;28;20028;-82
2021/12/08 00:30:18;;;;;;;8.67;3.83;;;;;;;4.36;100.00;99054.81;5260392;28;20057;-73
2021/12/08 00:32:51;;;;;;;6.35;3.63;;;;;;;4.37;100.00;99059.97;5260628;28;20036;-83
2021/12/08 00:35:24;;;;;;;5.47;2.88;;;;;;;4.40;100.00;99058.25;5260555;28;20056;-81
2021/12/08 00:37:56;;;;;;;;;;;;;;;4.44;100.00;99045.25;5260679;28;20479;-79
2021/12/08 00:40:29;;;;;;;6.93;3.13;;;;;;;4.46;100.00;99053.81;5260968;28;19916;-81
2021/12/08 00:43:01;;;;;;;6.93;2.85;;;;;;;4.51;100.00;99049.44;5265118;28;20374;-80
2021/12/08 00:45:37;;;;;;;7.00;2.90;;;;;;;4.53;100.00;99039.09;5241611;28;20038;-78
2021/12/08 00:48:08;;;;;;;5.97;3.58;;;;;;;4.57;100.00;99057.09;5242811;28;20488;-82
2021/12/08 00:50:41;;;;;;;4.83;2.40;;;;;;;4.61;100.00;99049.31;5251470;28;20025;-74
2021/12/08 00:53:12;;;;;;;4.13;2.17;;;;;;;4.60;100.00;99045.84;5262301;28;20095;-75
2021/12/08 00:55:44;;;;;;;4.10;2.40;;;;;;;4.62;100.00;99049.28;5255523;28;20025;-82
2021/12/08 00:58:16;;;;;;;5.60;2.53;;;;;;;4.62;100.00;99059.59;5240176;28;20485;-85
2021/12/08 01:00:51;;;;;;;6.50;2.77;;;;;;;4.61;100.00;99073.38;5241711;28;20026;-86
2021/12/08 01:03:23;;;;;;;5.70;2.50;;;;;;;4.65;100.00;99079.31;5241919;28;20014;-84
2021/12/08 01:05:56;;;;;;;5.43;2.57;;;;;;;4.66;100.00;99071.56;5239838;28;20032;-85
2021/12/08 01:08:29;;;;;;;7.60;2.25;;;;;;;4.71;100.00;99090.41;5239997;28;20049;-73
2021/12/08 01:11:10;;;;;;;7.25;2.55;;;;;;;4.74;100.00;99090.34;5239824;28;20065;-82
2021/12/08 01:13:42;;;;;;;4.43;1.90;;;;;;;4.80;100.00;99089.41;5239709;28;20483;-84
2021/12/08 01:16:16;;;;;;;7.28;2.72;;;;;;;4.85;100.00;99097.09;5239453;28;20623;-82
2021/12/08 01:18:48;;;;;;;7.05;2.38;;;;;;;4.82;100.00;99090.22;5238418;28;20034;-82
2021/12/08 01:21:20;;;;;;;5.40;2.10;;;;;;;4.87;100.00;99090.16;5239541;28;20040;-86
2021/12/08 01:23:52;;;;;;;5.00;2.10;;;;;;;4.92;100.00;99096.09;5239777;28;20029;-81
2021/12/08 01:26:25;;;;;;;3.80;2.17;;;;;;;4.97;100.00;99096.00;5239890;28;20033;-86
2021/12/08 01:28:57;;;;;;;7.30;2.42;;;;;;;4.97;100.00;99107.19;5241850;28;20033;-88
2021/12/08 01:31:29;;;;;;;8.07;2.45;;;;;;;4.99;100.00;99108.03;5243722;28;20484;-88
2021/12/08 01:34:00;;;;;;;4.80;2.20;;;;;;;5.03;100.00;99101.91;5245889;28;20026;-84
2021/12/08 01:36:31;;;;;;;5.73;2.27;;;;;;;5.01;100.00;99114.03;5243989;28;20041;-81
2021/12/08 01:39:06;;;;;;;7.53;2.50;;;;;;;4.99;100.00;99109.75;5243245;28;20599;-81
2021/12/08 01:41:39;;;;;;;4.22;2.22;;;;;;;4.98;100.00;99105.47;5256195;28;20068;-74
2021/12/08 01:47:01;;;;;;;6.28;2.22;;;;;;;5.00;100.00;99119.22;5248414;28;19921;-77
2021/12/08 01:49:33;;;;;;;5.80;2.27;;;;;;;5.02;100.00;99120.88;5255350;28;20021;-85
2021/12/08 01:52:04;;;;;;;8.30;2.53;;;;;;;5.02;100.00;99125.19;5264789;28;20388;-84
2021/12/08 01:54:37;;;;;;;8.07;2.63;;;;;;;5.06;100.00;99119.09;5244511;28;20029;-75
2021/12/08 01:57:09;;;;;;;;;;;;;;;5.05;100.00;99120.81;5251225;28;20047;-77
2021/12/08 01:59:40;;;;;;;5.55;2.45;;;;;;;5.07;100.00;99123.38;5259123;28;19977;-83
2021/12/08 02:02:12;;;;;;;5.10;2.20;;;;;;;5.06;100.00;99113.94;5258735;28;20060;-81
2021/12/08 02:04:43;;;;;;;11.07;3.40;;;;;;;5.11;100.00;99128.47;5260754;28;20020;-73
2021/12/08 02:07:17;;;;;;;7.93;2.50;;;;;;;5.13;100.00;99130.19;5260735;28;20061;-73
2021/12/08 02:09:49;;;;;;;9.73;2.50;;;;;;;5.14;100.00;99130.16;5260956;28;20049;-76
2021/12/08 02:12:20;;;;;;;9.60;2.73;;;;;;;5.16;100.00;99136.16;5251205;28;20064;-86
2021/12/08 02:14:52;;;;;;;6.77;2.20;;;;;;;5.14;100.00;99149.97;5240225;28;20037;-79
2021/12/08 02:17:24;;;;;;;4.90;2.15;;;;;;;5.17;100.00;99145.59;5240450;28;20030;-86
2021/12/08 02:19:55;;;;;;;9.20;2.43;;;;;;;5.26;100.00;99149.75;5240212;28;20029;-85
2021/12/08 02:22:27;;;;;;;6.20;2.50;;;;;;;5.28;100.00;99155.72;5240983;28;20055;-89
2021/12/08 02:24:58;;;;;;;7.87;2.40;;;;;;;5.30;100.00;99162.59;5240060;28;20036;-80
2021/12/08 02:27:32;;;;;;;5.57;2.20;;;;;;;5.30;100.00;99167.75;5238678;28;20081;-79
2021/12/08 02:30:16;;;;;;;6.72;2.90;;;;;;;5.37;99.81;99173.66;5238567;28;20401;-86
2021/12/08 02:47:07;;;;;;;8.55;2.40;;;;;;;5.08;98.93;99156.09;5240199;28;20045;-87
2021/12/08 02:49:36;;;;;;;11.55;2.60;;;;;;;5.04;98.87;99167.34;5241616;28;20069;-89
2021/12/08 02:52:10;;;;;;;;;;;;;;;4.98;99.25;99176.03;5240400;28;20555;-84
2021/12/08 02:54:44;;;;;;;8.40;2.30;;;;;;;4.99;99.30;99182.06;5240872;28;19916;-85
2021/12/08 02:57:19;;;;;;;7.30;2.53;;;;;;;5.01;99.54;99182.91;5241923;28;20178;-80
2021/12/08 02:59:50;;;;;;;9.05;2.17;;;;;;;5.07;99.63;99178.50;5244707;28;20048;-76
2021/12/08 03:02:23;;;;;;;9.80;2.63;;;;;;;5.10;99.29;99174.97;5241839;28;20029;-87
2021/12/08 03:04:54;;;;;;;7.80;3.30;;;;;;;5.10;99.42;99175.84;5243050;28;20033;-83
2021/12/08 03:07:26;;;;;;;9.80;2.40;;;;;;;5.15;99.40;99169.75;5253953;28;20037;-77
2021/12/08 03:10:10;;;;;;;9.37;2.63;;;;;;;5.19;99.25;99174.00;5255698;28;20037;-81
2021/12/08 03:12:42;;;;;;;10.38;2.80;;;;;;;5.23;99.14;99181.69;5258416;28;20416;-73
2021/12/08 03:15:14;;;;;;;6.33;2.47;;;;;;;5.24;99.20;99180.78;5258929;28;20032;-79
2021/12/08 03:17:46;;;;;;;8.07;2.40;;;;;;;5.28;98.58;99191.91;5249873;28;20044;-84
2021/12/08 03:20:28;;;;;;;6.95;2.67;;;;;;;5.26;98.47;99185.91;5238321;28;20076;-82
2021/12/08 03:23:03;;;;;;;9.82;2.25;;;;;;;5.30;96.27;99188.44;5239607;28;20021;-84
2021/12/08 03:25:39;;;;;;;11.80;3.13;;;;;;;5.34;94.67;99196.97;5239787;28;20468;-84
2021/12/08 03:28:22;;;;;;;11.15;2.72;;;;;;;5.35;94.27;99203.84;5254881;28;20091;-91
2021/12/08 03:33:29;;;;;;;11.15;3.53;;;;;;;5.29;93.12;99206.53;5243651;28;20136;-82
2021/12/08 03:36:02;;;;;;;9.33;2.67;;;;;;;5.24;93.29;99206.63;5248677;28;20049;-82
2021/12/08 03:38:34;;;;;;;9.02;2.67;;;;;;;5.22;93.29;99205.78;5252672;28;20045;-79
2021/12/08 03:41:07;;;;;;;11.23;2.43;;;;;;;5.22;92.33;99202.38;5249141;28;20026;-87
2021/12/08 03:43:39;;;;;;;9.77;2.80;;;;;;;5.24;92.02;99198.00;5247198;28;20554;-88
2021/12/08 03:46:13;;;;;;;7.70;2.80;;;;;;;5.18;91.33;99205.88;5247620;28;20037;-86
2021/12/08 03:48:47;;;;;;;8.57;3.55;;;;;;;5.13;91.68;99199.91;5246573;28;20393;-86
2021/12/08 03:51:19;;;;;;;6.55;2.60;;;;;;;5.00;91.40;99196.69;5246157;28;20025;-89
2021/12/08 03:53:51;;;;;;;9.77;3.08;;;;;;;4.92;91.88;99201.97;5247878;28;20048;-88
2021/12/08 03:56:22;;;;;;;5.43;2.07;;;;;;;4.86;91.84;99208.09;5247094;28;20121;-89
2021/12/08 03:58:54;;;;;;;9.13;2.20;;;;;;;4.80;91.85;99204.72;5246688;28;20022;-81
2021/12/08 04:01:25;;;;;;;8.17;2.40;;;;;;;4.76;91.51;99211.66;5246479;28;20028;-86
2021/12/08 04:04:03;;;;;;;9.10;2.63;;;;;;;4.67;91.73;99212.66;5248775;28;20025;-85
2021/12/08 04:06:47;;;;;;;7.55;2.08;;;;;;;4.56;92.14;99214.53;5246983;28;20037;-76
2021/12/08 04:09:30;;;;;;;9.30;2.58;;;;;;;4.47;92.54;99217.22;5246907;28;20470;-88
2021/12/08 04:12:02;;;;;;;9.23;2.35;;;;;;;4.38;92.78;99221.63;5245195;28;20041;-84
2021/12/08 04:14:38;;;;;;;11.00;2.30;;;;;;;4.34;93.19;99224.25;5245258;28;20053;-84
2021/12/08 04:17:12;;;;;;;5.03;2.00;;;;;;;4.25;93.42;99225.25;5254558;28;20037;-75
2021/12/08 04:19:45;;;;;;;8.32;2.55;;;;;;;4.25;93.51;99214.06;5260226;28;20025;-78
2021/12/08 04:22:22;;;;;;;9.73;3.33;;;;;;;4.19;94.22;99221.00;5262373;28;20032;-79
2021/12/08 04:24:54;;;;;;;13.25;3.00;;;;;;;4.22;94.38;99225.28;5265244;28;20012;-77
2021/12/08 04:27:30;;;;;;;7.78;2.47;;;;;;;4.23;94.61;99229.53;5254864;28;20073;-82
2021/12/08 04:30:05;;;;;;;7.35;2.20;;;;;;;4.19;95.09;99231.31;5245723;28;20033;-83
2021/12/08 04:32:37;;;;;;;8.20;2.28;;;;;;;4.12;95.20;99241.72;5263972;28;20029;-78
2021/12/08 04:35:10;;;;;;;10.50;2.60;;;;;;;4.09;95.24;99239.16;5253724;28;20029;-81
2021/12/08 04:37:47;;;;;;;7.65;2.58;;;;;;;4.14;94.41;99232.25;5283365;28;20020;-81
2021/12/08 04:40:36;;;;;;;9.25;2.92;;;;;;;4.11;94.15;99240.03;5267328;28;20063;-83
2021/12/08 04:46:20;;;;;;;11.05;3.25;;;;;;;4.12;92.59;99234.84;5263499;28;20029;-88
2021/12/08 05:06:03;;;;;;;8.23;2.70;;;;;;;4.05;91.04;99250.41;5240868;28;20044;-84
2021/12/08 05:08:41;;;;;;;9.52;2.85;;;;;;;4.14;90.31;99252.88;5247462;28;20069;-86
2021/12/08 05:11:18;;;;;;;12.70;3.22;;;;;;;4.23;90.00;99257.06;5265796;28;20537;-84
2021/12/08 05:13:56;;;;;;;10.40;3.05;;;;;;;4.28;89.54;99261.31;5252360;28;20025;-87
2021/12/08 05:16:30;;;;;;;5.68;2.70;;;;;;;4.31;89.20;99265.56;5249732;28;20029;-85
2021/12/08 05:19:06;;;;;;;5.35;2.33;;;;;;;4.37;88.50;99250.03;5250805;28;20040;-86
2021/12/08 05:21:47;;;;;;;8.75;2.33;;;;;;;4.41;88.41;99256.84;5268635;28;20056;-89
2021/12/08 05:24:34;;;;;;;10.38;2.40;;;;;;;4.46;88.03;99265.41;5253420;28;20032;-90
2021/12/08 05:27:15;;;;;;;10.25;2.55;;;;;;;4.42;88.41;99261.13;5256667;28;20018;-79
2021/12/08 05:29:52;;;;;;;8.70;2.47;;;;;;;4.37;88.52;99268.94;5260944;28;20009;-81
2021/12/08 05:32:23;;;;;;;10.15;2.30;;;;;;;4.37;88.10;99268.94;5262902;28;20049;-78
2021/12/08 05:34:55;;;;;;;10.70;2.87;;;;;;;4.34;88.54;99263.81;5263606;28;20029;-78
2021/12/08 05:37:27;;;;;;;9.43;2.57;;;;;;;4.33;88.38;99269.84;5249824;28;20037;-74
2021/12/08 05:39:58;;;;;;;11.83;3.27;;;;;;;4.33;88.29;99280.19;5238941;28;20032;-80
2021/12/08 05:42:35;;;;;;;16.40;4.53;;;;;;;4.34;88.39;99278.44;5238616;28;20112;-80
2021/12/08 05:45:11;;;;;;;13.82;3.90;;;;;;;4.38;88.12;99291.28;5238016;28;20029;-80
2021/12/08 05:47:45;;;;;;;12.32;2.90;;;;;;;4.36;88.52;99289.59;5238190;28;20064;-80
2021/12/08 05:50:52;;;;;;;11.70;3.15;;;;;;;4.34;88.50;99299.06;5238167;28;20079;-83
2021/12/08 05:53:24;;;;;;;10.38;2.72;;;;;;;4.34;88.42;99288.75;5173517;28;20203;-82
2021/12/08 05:55:56;;;;;;;10.00;2.42;;;;;;;4.35;88.03;99291.31;5173563;28;20097;-80
2021/12/08 05:58:29;;;;;;;7.60;2.57;;;;;;;4.36;87.83;99287.00;5173344;28;20034;-77
2021/12/08 06:01:23;;;;;;;10.38;3.53;;;;;;;4.33;88.06;99287.03;5173270;28;20309;-82
2021/12/08 06:03:55;;;;;;;11.43;3.45;;;;;;;4.30;87.98;99289.66;5173492;28;20054;-75
2021/12/08 06:06:27;;;;;;;9.67;3.27;;;;;;;4.28;88.02;99302.59;5173510;28;20109;-80
2021/12/08 06:08:59;;;;;;;15.40;3.55;;;;;;;4.25;88.25;99310.38;5173046;28;20062;-82
2021/12/08 06:11:31;;;;;;;11.40;3.53;;;;;;;4.25;88.32;99305.22;5173613;28;20030;-81
2021/12/08 06:14:06;;;;;;;13.27;3.97;;;;;;;4.24;88.43;99311.22;5174284;28;20529;-80
2021/12/08 06:16:40;;;;;;;14.25;3.10;;;;;;;4.23;88.29;99309.50;5172402;28;20053;-83
2021/12/08 06:19:13;;;;;;;14.50;3.90;;;;;;;4.22;88.29;99305.25;5173284;28;20501;-80
2021/12/08 06:21:47;;;;;;;13.98;3.33;;;;;;;4.19;88.05;99318.16;5173169;28;20058;-81
2021/12/08 06:24:20;;;;;;;20.02;3.50;;;;;;;4.19;88.12;99328.47;5172922;28;20030;-81
2021/12/08 06:26:52;;;;;;;12.98;3.72;;;;;;;4.18;87.79;99319.03;5173255;28;21038;-82
2021/12/08 06:29:23;;;;;;;12.82;2.97;;;;;;;4.17;87.46;99319.88;5218027;28;20041;-84
2021/12/08 06:32:34;;;;;;;14.13;3.80;;;;;;;4.16;87.25;99325.94;5239681;28;20027;-83
2021/12/08 06:35:09;;;;;;;13.05;3.13;;;;;;;4.10;87.40;99323.41;5238261;28;20068;-79
2021/12/08 06:37:43;;;;;;;14.20;3.50;;;;;;;4.08;87.84;99325.16;5241391;28;20033;-85
2021/12/08 06:40:20;;;;;;;15.85;4.38;;;;;;;4.06;87.48;99327.75;5249975;28;20112;-72
2021/12/08 06:42:56;;;;;;;13.43;3.78;;;;;;;3.94;87.79;99339.00;5261999;28;20094;-74
2021/12/08 06:45:33;;;;;;;13.32;3.13;;;;;;;3.89;87.74;99330.47;5258241;28;20033;-83
2021/12/08 06:48:10;;;;;;;13.40;3.65;;;;;;;3.80;88.11;99320.22;5239307;28;20030;-80
2021/12/08 06:50:48;;;;;;;17.08;3.33;;;;;;;3.79;87.93;99323.69;5238340;28;20026;-81
2021/12/08 06:53:22;;;;;;;9.13;3.30;;;;;;;3.77;88.17;99334.00;5236776;28;20053;-78
2021/12/08 06:56:00;;;;;;;14.98;3.92;;;;;;;3.70;88.82;99336.66;5236652;28;20032;-84
2021/12/08 06:58:38;;;;;;;13.35;3.67;;;;;;;3.63;89.04;99341.84;5236915;28;20116;-81
2021/12/08 07:01:22;;;;;;;15.82;3.80;;;;;;;3.58;89.14;99343.63;5236869;28;20025;-82
2021/12/08 07:09:23;;;;;;;14.95;3.20;;;;;;;3.56;89.28;99347.94;5236972;28;20073;-83
2021/12/08 07:11:57;;;;;;;12.95;3.70;;;;;;;3.51;89.33;99354.84;5236833;28;20087;-82
2021/12/08 07:14:30;;;;;;;8.10;2.90;;;;;;;3.45;89.28;99360.03;5237604;28;20083;-84
2021/12/08 07:17:07;;;;;;;13.32;2.80;;;;;;;3.45;89.17;99368.59;5236521;28;20381;-77
2021/12/08 07:19:50;;;;;;;13.13;3.60;;;;;;;3.41;89.17;99366.94;5235492;28;20037;-77
2021/12/08 07:22:25;;;;;;;10.77;3.13;;;;;;;3.37;89.26;99378.09;5236901;28;20477;-80
2021/12/08 07:24:59;;;;;;;11.35;3.08;;;;;;;3.33;89.59;99385.84;5237271;28;20280;-74
2021/12/08 07:27:34;;;;;;;8.93;3.05;;;;;;;3.27;89.53;99399.66;5237380;28;20030;-79
2021/12/08 07:30:14;;;;;;;19.20;4.65;;;;;;;3.29;89.50;99400.47;5237017;28;20033;-77
2021/12/08 07:32:46;;;;;;;10.25;2.42;;;;;;;3.27;89.69;99407.38;5238216;28;20481;-81
2021/12/08 07:35:23;;;;;;;20.63;4.30;;;;;;;3.22;90.03;99402.25;5239433;28;20083;-84
2021/12/08 07:37:55;;;;;;;10.70;3.28;;;;;;;3.22;90.08;99411.66;5253475;28;20524;-78
2021/12/08 07:40:34;;;;;;;16.38;3.63;;;;;;;3.26;89.66;99421.94;5247485;28;20108;-80
2021/12/08 07:43:12;;;;;;;14.85;3.75;;;;;;;3.35;89.36;99422.75;5246406;28;20454;-83
2021/12/08 07:45:47;;;;;;;11.32;2.90;;;;;;;3.41;88.82;99421.03;5231879;28;20029;-80
2021/12/08 07:48:26;;;;;;;10.98;4.07;;;;;;;3.43;88.76;99426.16;5247653;28;20237;-74
2021/12/08 07:51:14;;;;;;;12.75;3.05;;;;;;;3.49;88.55;99423.53;5258473;28;20022;-75
2021/12/08 07:53:46;;;;;;;10.32;3.17;;;;;;;3.49;88.61;99425.28;5260130;28;20033;-76
2021/12/08 07:56:20;;;;;;;11.50;3.27;;;;;;;3.54;88.21;99437.28;5242428;28;20156;-79
2021/12/08 07:59:00;;;;;;;15.25;3.05;;;;;;;3.59;87.78;99440.66;5237913;28;20040;-80
2021/12/08 08:01:53;;;;;;;11.77;2.60;;;;;;;3.65;87.22;99424.31;5238140;28;20044;-80
2021/12/08 08:04:28;;;;;;;12.82;3.00;;;;;;;3.72;86.70;99419.97;5239580;28;20025;-84
2021/12/08 08:07:00;;;;;;;11.95;3.33;;;;;;;3.75;86.64;99425.09;5236294;28;20087;-82
2021/12/08 08:09:40;;;;;;;13.18;4.00;;;;;;;3.82;85.89;99432.78;5236987;28;20473;-79
2021/12/08 08:12:17;;;;;;;11.18;2.92;;;;;;;3.83;85.79;99428.47;5235918;28;20025;-77
2021/12/08 08:14:54;;;;;;;13.68;3.55;;;;;;;3.84;86.00;99436.19;5237079;28;20033;-74
2021/12/08 08:17:36;;;;;;;9.07;3.38;;;;;;;3.92;85.20;99454.19;5236639;28;20025;-81
2021/12/08 08:20:18;;;;;;;9.68;2.50;;;;;;;3.95;84.58;99453.31;5236311;28;20105;-83
2021/12/08 08:22:49;;;;;;;9.77;2.23;;;;;;;4.01;84.02;99437.81;5234792;28;20481;-82
2021/12/08 08:25:25;;;;;;;11.23;3.03;;;;;;;4.02;83.67;99439.50;5236495;28;20053;-79
2021/12/08 08:27:57;;;;;;;13.68;3.10;;;;;;;4.08;83.30;99439.47;5237601;28;20030;-85
2021/12/08 08:30:37;;;;;;;12.63;3.00;;;;;;;4.10;83.53;99448.03;5241999;28;20542;-81
2021/12/08 08:33:09;;;;;;;9.32;2.65;;;;;;;4.14;83.10;99443.72;5239785;28;20025;-82
2021/12/08 08:35:51;;;;;;;14.90;2.83;;;;;;;4.14;82.88;99429.09;5241075;28;20219;-80
2021/12/08 08:38:31;;;;;;;10.27;3.33;;;;;;;4.12;82.89;99429.97;5239762;28;20292;-78
2021/12/08 08:41:08;;;;;;;10.35;2.60;;;;;;;4.12;83.36;99427.41;5239843;28;20038;-80
2021/12/08 08:43:39;;;;;;;13.20;2.97;;;;;;;4.12;82.51;99422.22;5241303;28;20047;-78
2021/12/08 08:46:16;;;;;;;13.10;2.90;;;;;;;4.15;82.96;99406.75;5241665;28;20376;-84
2021/12/08 08:48:53;;;;;;;15.10;3.20;;;;;;;4.21;82.25;99401.53;5241726;28;20102;-83
2021/12/08 08:51:31;;;;;;;11.65;2.60;;;;;;;4.35;81.30;99415.16;5223680;28;20033;-80
2021/12/08 08:54:10;;;;;;;13.32;3.33;;;;;;;4.32;81.53;99386.81;5244305;28;20036;-80
2021/12/08 08:56:45;;;;;;;9.50;3.10;;;;;;;4.29;81.82;99401.47;5244363;28;20029;-80
2021/12/08 08:59:23;;;;;;;8.02;2.60;;;;;;;4.25;81.89;99413.53;5252795;28;20029;-75
2021/12/08 09:01:56;;;;;;;8.95;2.58;;;;;;;4.27;81.44;99426.44;5259082;28;20296;-75
2021/12/08 09:04:33;;;;;;;10.50;2.70;;;;;;;4.42;81.19;99426.28;5259985;28;20026;-78
2021/12/08 09:07:14;;;;;;;7.22;2.95;;;;;;;4.54;81.16;99430.44;5246668;28;20745;-81
2021/12/08 09:09:46;;;;;;;9.27;2.97;;;;;;;4.58;79.97;99426.97;5239768;28;20400;-80
2021/12/08 09:12:29;;;;;;;11.65;2.47;;;;;;;4.61;79.53;99433.84;5239492;28;20746;-81
2021/12/08 09:15:16;;;;;;;8.93;2.05;;;;;;;4.66;79.44;99429.47;5239795;28;20496;-81
2021/12/08 09:17:54;;;;;;;11.75;3.33;;;;;;;4.80;78.71;99431.91;5239126;28;20035;-78
2021/12/08 09:20:32;;;;;;;7.85;2.30;;;;;;;4.73;78.39;99429.41;5239573;28;20022;-77
2021/12/08 09:23:12;;;;;;;11.20;2.83;;;;;;;4.85;78.82;99438.75;5239429;28;20025;-77
2021/12/08 09:25:48;;;;;;;12.38;4.60;;;;;;;5.01;78.50;99447.16;5238813;28;20621;-74
2021/12/08 09:28:29;;;;;;;8.77;2.47;;;;;;;4.99;77.54;99446.34;5244155;28;20021;-81
2021/12/08 09:31:25;;;;;;;9.98;2.75;;;;;;;5.10;77.89;99448.78;5239428;28;20025;-78
2021/12/08 09:34:09;;;;;;;8.88;3.17;;;;;;;5.28;77.29;99468.34;5230404;28;20072;-81
2021/12/08 09:36:50;;;;;;;10.60;2.78;;;;;;;5.55;76.39;99471.47;5254519;28;20071;-86
2021/12/08 09:39:36;;;;;;;10.45;2.47;;;;;;;5.87;75.51;99463.25;5238155;28;20477;-83
2021/12/08 09:42:14;;;;;;;9.88;2.40;;;;;;;5.91;73.45;99458.88;5238303;28;20118;-79
2021/12/08 09:45:04;;;;;;;7.03;2.08;;;;;;;6.17;74.81;99456.81;5238197;28;20038;-84
2021/12/08 09:47:36;;;;;;;6.45;2.10;;;;;;;6.29;72.42;99460.06;5238777;28;20481;-82
2021/12/08 09:50:10;;;;;;;6.85;2.45;;;;;;;6.29;72.37;99455.72;5253677;28;20068;-82
2021/12/08 09:52:45;;;;;;;8.43;2.75;;;;;;;6.55;71.66;99452.72;5238656;28;20056;-82
2021/12/08 09:55:18;;;;;;;5.85;1.70;;;;;;;6.79;70.34;99453.13;5238970;28;20034;-81
2021/12/08 09:57:50;;;;;;;9.85;2.95;;;;;;;6.84;69.81;99443.56;5238841;28;20112;-85
2021/12/08 10:00:29;;;;;;;11.05;3.05;;;;;;;6.86;70.09;99454.75;5255544;28;20453;-81
2021/12/08 10:03:03;;;;;;;10.52;3.10;;;;;;;7.15;69.31;99442.94;5240351;28;20060;-82
2021/12/08 10:05:36;;;;;;;10.25;2.80;;;;;;;7.29;68.15;99429.69;5228386;28;20056;-80
2021/12/08 10:08:09;;;;;;;10.38;2.05;;;;;;;7.12;68.23;99438.66;5250282;28;20053;-77
2021/12/08 10:10:43;;;;;;;6.47;3.65;;;;;;;7.29;68.16;99437.47;5260206;28;20105;-77
2021/12/08 10:13:16;;;;;;;6.97;2.25;;;;;;;7.11;67.38;99438.72;5258416;28;20028;-81
2021/12/08 10:15:48;;;;;;;8.38;2.50;;;;;;;7.25;67.46;99422.88;5239171;28;20033;-80
2021/12/08 10:18:20;;;;;;;6.60;3.00;;;;;;;7.48;66.42;99419.78;5237772;28;20040;-83
2021/12/08 10:20:54;;;;;;;7.40;2.23;;;;;;;7.49;65.77;99417.16;5238409;28;20025;-78
2021/12/08 10:23:28;;;;;;;9.07;2.90;;;;;;;7.35;66.96;99416.59;5237975;28;20017;-81
2021/12/08 10:26:32;;;;;;;6.72;2.45;;;;;;;7.40;67.52;99413.91;5237828;28;20853;-79
2021/12/08 10:29:05;;;;;;;8.18;2.15;;;;;;;7.47;66.75;99420.66;5173891;28;20131;-80
2021/12/08 10:31:47;;;;;;;9.82;2.08;;;;;;;7.34;66.68;99404.56;5173345;28;20027;-81
2021/12/08 10:34:29;;;;;;;11.77;2.40;;;;;;;7.57;67.87;99398.00;5174966;28;20656;-80
2021/12/08 10:37:10;;;;;;;7.32;2.22;;;;;;;7.89;66.77;99393.78;5175562;28;20435;-79
2021/12/08 10:39:47;;;;;;;7.50;2.70;;;;;;;7.90;65.48;99398.94;5187810;28;20039;-81
2021/12/08 10:42:37;;;;;;;10.45;3.50;;;;;;;8.43;64.64;99393.31;5188522;28;20157;-80
2021/12/08 10:45:13;;;;;;;8.10;2.60;;;;;;;8.87;62.96;99385.19;5183006;28;20076;-78
2021/12/08 10:47:48;;;;;;;7.22;2.10;;;;;;;8.96;62.32;99373.69;5178067;28;20031;-80
2021/12/08 10:56:24;;;;;;;7.15;2.13;;;;;;;7.76;64.12;99388.91;5172849;28;20030;-83
2021/12/08 10:58:59;;;;;;;6.95;2.97;;;;;;;7.96;63.95;99401.38;5172793;28;20477;-78
2021/12/08 11:01:30;;;;;;;7.63;2.20;;;;;;;7.76;64.86;99399.28;5173863;28;20090;-84
2021/12/08 11:04:08;;;;;;;7.20;2.13;;;;;;;8.30;63.38;99408.31;5173799;28;20601;-80
2021/12/08 11:06:39;;;;;;;11.48;2.55;;;;;;;8.12;64.06;99420.03;5237222;28;20385;-85
2021/12/08 11:09:19;;;;;;;4.70;2.20;;;;;;;8.58;62.81;99424.09;5238079;28;20089;-75
2021/12/08 11:11:52;;;;;;;7.18;2.13;;;;;;;8.69;62.00;99434.16;5238501;28;20461;-82
2021/12/08 11:14:24;;;;;;;6.15;1.98;;;;;;;8.46;62.33;99436.53;5242664;28;20025;-83
2021/12/08 11:16:56;;;;;;;9.85;2.58;;;;;;;9.04;62.32;99447.94;5244037;28;20033;-85
2021/12/08 11:19:28;;;;;;;7.27;2.00;;;;;;;9.64;59.63;99442.75;5247321;28;20098;-77
2021/12/08 11:22:05;;;;;;;7.13;2.63;;;;;;;10.28;57.46;99447.66;5259061;28;20097;-77
2021/12/08 11:24:45;;;;;;;5.05;2.08;;;;;;;9.88;57.54;99450.72;5257749;28;20052;-76
2021/12/08 11:27:33;;;;;;;7.18;2.17;;;;;;;8.72;61.20;99454.03;5245655;28;20032;-79
2021/12/08 11:30:15;;;;;;;6.35;2.20;;;;;;;8.86;61.90;99458.88;5237394;28;20026;-78
2021/12/08 11:32:47;;;;;;;6.78;2.00;;;;;;;8.89;62.06;99467.44;5236936;28;20392;-85
2021/12/08 11:35:21;;;;;;;5.30;2.07;;;;;;;8.62;62.63;99453.41;5237057;28;20025;-86
2021/12/08 11:38:00;;;;;;;6.25;2.00;;;;;;;8.29;63.36;99463.75;5235942;28;20034;-82
2021/12/08 11:40:36;;;;;;;7.10;2.35;;;;;;;7.93;63.43;99475.84;5239326;28;20080;-80
2021/12/08 11:43:14;;;;;;;5.88;1.98;;;;;;;7.75;64.89;99482.31;5251209;28;20029;-83
2021/12/08 11:45:45;;;;;;;9.23;2.50;;;;;;;7.69;64.97;99493.66;5235561;28;20060;-83
2021/12/08 11:48:25;;;;;;;8.53;2.30;;;;;;;7.71;65.90;99489.31;5236273;28;20089;-87
2021/12/08 11:51:10;;;;;;;5.55;1.85;;;;;;;7.64;65.52;99479.94;5236192;28;20049;-82
2021/12/08 11:53:41;;;;;;;9.25;2.22;;;;;;;7.45;66.04;99490.72;5236769;28;20481;-83
2021/12/08 11:56:40;;;;;;;6.43;2.00;;;;;;;7.51;66.26;99505.28;5236491;28;20036;-82
2021/12/08 11:59:11;;;;;;;7.43;2.63;;;;;;;7.21;67.35;99502.44;5236358;28;20079;-82
2021/12/08 12:01:46;;;;;;;8.40;2.50;;;;;;;7.19;67.32;99508.53;5237098;28;20029;-82
2021/12/08 12:04:18;;;;;;;9.45;2.67;;;;;;;7.35;67.05;99509.09;5240421;28;20492;-87
2021/12/08 12:06:49;;;;;;;5.87;1.90;;;;;;;7.15;66.77;99512.06;5222342;28;20041;-82
2021/12/08 12:09:20;;;;;;;7.37;2.43;;;;;;;7.36;66.93;99508.19;5240063;28;20049;-82
2021/12/08 12:11:53;;;;;;;7.53;2.50;;;;;;;7.60;66.16;99514.59;5241222;28;20455;-84
2021/12/08 12:14:28;;;;;;;5.32;1.90;;;;;;;7.36;66.50;99534.97;5256945;28;20040;-89
2021/12/08 12:17:00;;;;;;;7.10;2.20;;;;;;;7.46;66.44;99536.50;5242492;28;20029;-83
2021/12/08 12:19:45;;;;;;;6.47;2.00;;;;;;;7.59;67.05;99541.44;5243408;28;20088;-83
2021/12/08 12:22:31;;;;;;;7.35;2.03;;;;;;;7.14;67.66;99549.22;5249549;28;20085;-80
2021/12/08 12:25:21;;;;;;;10.40;2.05;;;;;;;6.93;67.84;99554.75;5249986;28;20065;-76
2021/12/08 12:28:10;;;;;;;3.45;1.60;;;;;;;6.85;67.80;99553.19;5258694;28;20025;-77
2021/12/08 12:31:08;;;;;;;8.23;1.92;;;;;;;6.83;68.53;99547.19;5262585;28;20444;-77
2021/12/08 12:33:44;;;;;;;7.68;2.42;;;;;;;6.86;68.91;99560.06;5246357;28;20026;-84
2021/12/08 12:36:32;;;;;;;8.40;2.80;;;;;;;6.70;69.01;99560.34;5241151;28;20063;-86
2021/12/08 12:39:24;;;;;;;7.80;2.15;;;;;;;6.79;69.52;99564.50;5240776;28;20033;-87
2021/12/08 12:41:59;;;;;;;8.93;2.30;;;;;;;6.82;69.76;99568.78;5240687;28;20040;-81
2021/12/08 12:44:31;;;;;;;5.88;2.90;;;;;;;6.73;68.98;99570.66;5243550;28;20124;-83
2021/12/08 12:47:11;;;;;;;8.15;2.20;;;;;;;6.64;69.61;99575.97;5246725;28;20045;-79
2021/12/08 12:49:46;;;;;;;9.82;2.65;;;;;;;6.69;69.70;99573.31;5241605;28;20044;-78
2021/12/08 12:52:17;;;;;;;7.28;2.72;;;;;;;6.68;69.50;99567.28;5242026;28;20096;-87
2021/12/08 12:54:49;;;;;;;16.30;2.50;;;;;;;6.61;69.83;99567.41;5244758;28;20059;-83
2021/12/08 12:57:22;;;;;;;7.17;2.30;;;;;;;6.68;69.93;99566.41;5240654;28;20095;-87
2021/12/08 12:59:54;;;;;;;7.38;2.10;;;;;;;6.75;70.61;99558.53;5241087;28;20464;-85
2021/12/08 13:02:33;;;;;;;6.97;2.40;;;;;;;6.68;70.39;99558.66;5240156;28;20021;-86
2021/12/08 13:05:10;;;;;;;9.52;3.05;;;;;;;6.79;70.51;99551.56;5240248;28;20033;-84
2021/12/08 13:07:57;;;;;;;6.47;2.63;;;;;;;6.78;69.76;99555.03;5239880;28;20469;-84
2021/12/08 13:10:38;;;;;;;6.57;2.45;;;;;;;6.80;69.66;99550.69;5240339;28;20025;-84
2021/12/08 13:13:15;;;;;;;7.05;2.50;;;;;;;6.75;69.94;99555.94;5239353;28;20028;-86
2021/12/08 13:15:48;;;;;;;8.80;2.85;;;;;;;6.70;70.11;99567.28;5239659;28;20432;-84
2021/12/08 13:18:23;;;;;;;12.23;3.65;;;;;;;6.68;69.88;99564.69;5240132;28;20033;-79